sensor_id;sensor_type;location;lat;lon;timestamp;P1;P2;P0
73973;PMS5003;62336;-26.094;27.994;2023-05-14T00:01:21;56;51;
73973;PMS5003;62336;-26.094;27.994;2023-05-14T00:03:47;54;51;
73973;PMS5003;62336;-26.094;27.994;2023-05-14T00:06:12;48;48;
73973;PMS5003;62336;-26.094;27.994;2023-05-14T00:20:45;53;47;
73973;PMS5003;62336;-26.094;27.994;2023-05-14T00:23:11;49;45;
73973;PMS5003;62336;-26.094;27.994;2023-05-14T00:25:36;50;47;
73973;PMS5003;62336;-26.094;27.994;2023-05-14T00:28:01;41;41;
73973;PMS5003;62336;-26.094;27.994;2023-05-14T00:30:27;54;48;
73973;PMS5003;62336;-26.094;27.994;2023-05-14T00:32:52;49;47;
73973;PMS5003;62336;-26.094;27.994;2023-05-14T00:35:18;48;46;
73973;PMS5003;62336;-26.094;27.994;2023-05-14T00:37:43;50;42;
73973;PMS5003;62336;-26.094;27.994;2023-05-14T00:40:09;48;46;
73973;PMS5003;62336;-26.094;27.994;2023-05-14T00:42:34;53;50;
73973;PMS5003;62336;-26.094;27.994;2023-05-14T00:45:00;53;49;
73973;PMS5003;62336;-26.094;27.994;2023-05-14T01:02:03;44;41;
73973;PMS5003;62336;-26.094;27.994;2023-05-14T01:04:22;48;46;
73973;PMS5003;62336;-26.094;27.994;2023-05-14T01:06:53;58;53;
73973;PMS5003;62336;-26.094;27.994;2023-05-14T01:09:15;50;47;
73973;PMS5003;62336;-26.094;27.994;2023-05-14T01:11:40;49;46;
73973;PMS5003;62336;-26.094;27.994;2023-05-14T01:14:11;49;47;
73973;PMS5003;62336;-26.094;27.994;2023-05-14T01:16:35;46;44;
73973;PMS5003;62336;-26.094;27.994;2023-05-14T01:18:56;46;44;
73973;PMS5003;62336;-26.094;27.994;2023-05-14T01:21:26;50;46;
73973;PMS5003;62336;-26.094;27.994;2023-05-14T01:23:46;49;45;
73973;PMS5003;62336;-26.094;27.994;2023-05-14T01:26:12;46;45;
73973;PMS5003;62336;-26.094;27.994;2023-05-14T01:28:37;50;48;
73973;PMS5003;62336;-26.094;27.994;2023-05-14T01:31:04;43;42;
73973;PMS5003;62336;-26.094;27.994;2023-05-14T01:33:28;52;50;
73973;PMS5003;62336;-26.094;27.994;2023-05-14T01:35:54;54;49;
73973;PMS5003;62336;-26.094;27.994;2023-05-14T01:38:20;50;46;
73973;PMS5003;62336;-26.094;27.994;2023-05-14T01:40:45;53;49;
73973;PMS5003;62336;-26.094;27.994;2023-05-14T01:43:11;49;47;
73973;PMS5003;62336;-26.094;27.994;2023-05-14T01:45:36;52;48;
73973;PMS5003;62336;-26.094;27.994;2023-05-14T01:48:02;52;48;
73973;PMS5003;62336;-26.094;27.994;2023-05-14T01:50:26;50;45;
73973;PMS5003;62336;-26.094;27.994;2023-05-14T01:52:51;60;48;
73973;PMS5003;62336;-26.094;27.994;2023-05-14T01:55:17;53;52;
73973;PMS5003;62336;-26.094;27.994;2023-05-14T01:57:42;49;45;
73973;PMS5003;62336;-26.094;27.994;2023-05-14T02:00:08;55;51;
73973;PMS5003;62336;-26.094;27.994;2023-05-14T02:02:34;58;56;
73973;PMS5003;62336;-26.094;27.994;2023-05-14T02:05:00;58;52;
73973;PMS5003;62336;-26.094;27.994;2023-05-14T02:07:25;60;54;
73973;PMS5003;62336;-26.094;27.994;2023-05-14T02:09:50;62;58;
73973;PMS5003;62336;-26.094;27.994;2023-05-14T02:12:15;61;59;
73973;PMS5003;62336;-26.094;27.994;2023-05-14T02:14:41;63;59;
73973;PMS5003;62336;-26.094;27.994;2023-05-14T02:17:06;63;60;
73973;PMS5003;62336;-26.094;27.994;2023-05-14T02:19:31;54;53;
73973;PMS5003;62336;-26.094;27.994;2023-05-14T02:21:57;61;56;
73973;PMS5003;62336;-26.094;27.994;2023-05-14T02:24:22;52;49;
73973;PMS5003;62336;-26.094;27.994;2023-05-14T02:26:47;53;46;
73973;PMS5003;62336;-26.094;27.994;2023-05-14T02:29:13;52;48;
73973;PMS5003;62336;-26.094;27.994;2023-05-14T02:31:38;43;41;
73973;PMS5003;62336;-26.094;27.994;2023-05-14T02:34:04;45;41;
73973;PMS5003;62336;-26.094;27.994;2023-05-14T02:36:29;42;41;
73973;PMS5003;62336;-26.094;27.994;2023-05-14T02:38:57;34;32;
73973;PMS5003;62336;-26.094;27.994;2023-05-14T02:41:20;36;34;
73973;PMS5003;62336;-26.094;27.994;2023-05-14T02:43:46;39;37;
73973;PMS5003;62336;-26.094;27.994;2023-05-14T02:46:11;39;34;
73973;PMS5003;62336;-26.094;27.994;2023-05-14T02:48:37;35;34;
73973;PMS5003;62336;-26.094;27.994;2023-05-14T02:51:03;27;25;
73973;PMS5003;62336;-26.094;27.994;2023-05-14T02:53:28;29;28;
73973;PMS5003;62336;-26.094;27.994;2023-05-14T02:55:54;34;31;
73973;PMS5003;62336;-26.094;27.994;2023-05-14T02:58:20;31;29;
73973;PMS5003;62336;-26.094;27.994;2023-05-14T03:00:45;32;30;
73973;PMS5003;62336;-26.094;27.994;2023-05-14T03:03:10;30;27;
73973;PMS5003;62336;-26.094;27.994;2023-05-14T03:05:36;34;32;
73973;PMS5003;62336;-26.094;27.994;2023-05-14T03:08:01;31;29;
73973;PMS5003;62336;-26.094;27.994;2023-05-14T03:10:27;30;29;
73973;PMS5003;62336;-26.094;27.994;2023-05-14T03:12:52;27;26;
73973;PMS5003;62336;-26.094;27.994;2023-05-14T03:15:18;31;27;
73973;PMS5003;62336;-26.094;27.994;2023-05-14T03:17:43;35;33;
73973;PMS5003;62336;-26.094;27.994;2023-05-14T03:20:09;29;26;
73973;PMS5003;62336;-26.094;27.994;2023-05-14T03:22:34;26;25;
73973;PMS5003;62336;-26.094;27.994;2023-05-14T03:25:00;27;25;
73973;PMS5003;62336;-26.094;27.994;2023-05-14T03:27:25;27;25;
73973;PMS5003;62336;-26.094;27.994;2023-05-14T03:29:50;29;28;
73973;PMS5003;62336;-26.094;27.994;2023-05-14T03:32:16;27;25;
73973;PMS5003;62336;-26.094;27.994;2023-05-14T03:34:41;23;22;
73973;PMS5003;62336;-26.094;27.994;2023-05-14T03:37:06;34;33;
73973;PMS5003;62336;-26.094;27.994;2023-05-14T03:39:32;25;24;
73973;PMS5003;62336;-26.094;27.994;2023-05-14T03:41:57;30;27;
73973;PMS5003;62336;-26.094;27.994;2023-05-14T03:44:23;24;23;
73973;PMS5003;62336;-26.094;27.994;2023-05-14T03:46:48;32;29;
73973;PMS5003;62336;-26.094;27.994;2023-05-14T03:49:14;26;25;
73973;PMS5003;62336;-26.094;27.994;2023-05-14T03:51:39;25;24;
73973;PMS5003;62336;-26.094;27.994;2023-05-14T03:54:05;30;29;
73973;PMS5003;62336;-26.094;27.994;2023-05-14T03:56:30;29;28;
73973;PMS5003;62336;-26.094;27.994;2023-05-14T03:58:56;24;24;
73973;PMS5003;62336;-26.094;27.994;2023-05-14T04:01:22;27;26;
73973;PMS5003;62336;-26.094;27.994;2023-05-14T04:03:47;28;27;
73973;PMS5003;62336;-26.094;27.994;2023-05-14T04:06:13;30;27;
73973;PMS5003;62336;-26.094;27.994;2023-05-14T04:08:37;28;26;
73973;PMS5003;62336;-26.094;27.994;2023-05-14T04:11:03;28;24;
73973;PMS5003;62336;-26.094;27.994;2023-05-14T04:13:28;26;26;
73973;PMS5003;62336;-26.094;27.994;2023-05-14T04:15:54;27;25;
73973;PMS5003;62336;-26.094;27.994;2023-05-14T04:18:19;31;25;
73973;PMS5003;62336;-26.094;27.994;2023-05-14T04:20:45;30;29;
73973;PMS5003;62336;-26.094;27.994;2023-05-14T04:23:10;28;26;
73973;PMS5003;62336;-26.094;27.994;2023-05-14T04:25:35;30;30;
73973;PMS5003;62336;-26.094;27.994;2023-05-14T04:28:01;24;23;
73973;PMS5003;62336;-26.094;27.994;2023-05-14T04:30:27;28;27;
73973;PMS5003;62336;-26.094;27.994;2023-05-14T04:32:52;28;26;
73973;PMS5003;62336;-26.094;27.994;2023-05-14T04:35:17;29;27;
73973;PMS5003;62336;-26.094;27.994;2023-05-14T04:37:43;31;26;
73973;PMS5003;62336;-26.094;27.994;2023-05-14T04:40:08;24;24;
73973;PMS5003;62336;-26.094;27.994;2023-05-14T04:42:34;25;24;
73973;PMS5003;62336;-26.094;27.994;2023-05-14T04:44:59;27;25;
73973;PMS5003;62336;-26.094;27.994;2023-05-14T04:47:24;22;22;
73973;PMS5003;62336;-26.094;27.994;2023-05-14T04:49:49;27;26;
73973;PMS5003;62336;-26.094;27.994;2023-05-14T04:52:14;30;29;
73973;PMS5003;62336;-26.094;27.994;2023-05-14T04:54:39;30;30;
73973;PMS5003;62336;-26.094;27.994;2023-05-14T04:57:05;26;25;
73973;PMS5003;62336;-26.094;27.994;2023-05-14T04:59:31;27;26;
73973;PMS5003;62336;-26.094;27.994;2023-05-14T05:01:56;31;31;
73973;PMS5003;62336;-26.094;27.994;2023-05-14T05:04:22;29;28;
73973;PMS5003;62336;-26.094;27.994;2023-05-14T05:06:47;30;27;
73973;PMS5003;62336;-26.094;27.994;2023-05-14T05:09:12;31;29;
73973;PMS5003;62336;-26.094;27.994;2023-05-14T05:11:37;26;26;
73973;PMS5003;62336;-26.094;27.994;2023-05-14T05:14:02;32;30;
73973;PMS5003;62336;-26.094;27.994;2023-05-14T05:16:28;29;25;
73973;PMS5003;62336;-26.094;27.994;2023-05-14T05:18:53;27;26;
73973;PMS5003;62336;-26.094;27.994;2023-05-14T05:21:18;30;29;
73973;PMS5003;62336;-26.094;27.994;2023-05-14T05:23:44;30;29;
73973;PMS5003;62336;-26.094;27.994;2023-05-14T05:26:09;30;30;
73973;PMS5003;62336;-26.094;27.994;2023-05-14T05:28:34;30;28;
73973;PMS5003;62336;-26.094;27.994;2023-05-14T05:31:00;32;29;
73973;PMS5003;62336;-26.094;27.994;2023-05-14T05:33:25;33;32;
73973;PMS5003;62336;-26.094;27.994;2023-05-14T05:35:51;32;31;
73973;PMS5003;62336;-26.094;27.994;2023-05-14T05:38:16;36;33;
73973;PMS5003;62336;-26.094;27.994;2023-05-14T05:40:42;30;29;
73973;PMS5003;62336;-26.094;27.994;2023-05-14T05:43:07;32;31;
73973;PMS5003;62336;-26.094;27.994;2023-05-14T05:45:32;37;34;
73973;PMS5003;62336;-26.094;27.994;2023-05-14T05:47:58;47;39;
73973;PMS5003;62336;-26.094;27.994;2023-05-14T05:50:24;35;35;
73973;PMS5003;62336;-26.094;27.994;2023-05-14T05:52:49;41;36;
73973;PMS5003;62336;-26.094;27.994;2023-05-14T05:55:14;38;38;
73973;PMS5003;62336;-26.094;27.994;2023-05-14T05:57:40;34;34;
73973;PMS5003;62336;-26.094;27.994;2023-05-14T06:00:06;47;42;
73973;PMS5003;62336;-26.094;27.994;2023-05-14T06:02:31;42;38;
73973;PMS5003;62336;-26.094;27.994;2023-05-14T06:04:56;41;38;
73973;PMS5003;62336;-26.094;27.994;2023-05-14T06:07:21;43;40;
73973;PMS5003;62336;-26.094;27.994;2023-05-14T06:09:47;45;42;
73973;PMS5003;62336;-26.094;27.994;2023-05-14T06:12:12;51;47;
73973;PMS5003;62336;-26.094;27.994;2023-05-14T06:14:38;53;50;
73973;PMS5003;62336;-26.094;27.994;2023-05-14T06:17:03;54;50;
73973;PMS5003;62336;-26.094;27.994;2023-05-14T06:19:28;56;55;
73973;PMS5003;62336;-26.094;27.994;2023-05-14T06:21:54;49;49;
73973;PMS5003;62336;-26.094;27.994;2023-05-14T06:24:20;55;52;
73973;PMS5003;62336;-26.094;27.994;2023-05-14T06:26:45;48;45;
73973;PMS5003;62336;-26.094;27.994;2023-05-14T06:29:15;49;45;
73973;PMS5003;62336;-26.094;27.994;2023-05-14T06:31:36;53;49;
73973;PMS5003;62336;-26.094;27.994;2023-05-14T06:34:01;53;51;
73973;PMS5003;62336;-26.094;27.994;2023-05-14T06:36:26;47;44;
73973;PMS5003;62336;-26.094;27.994;2023-05-14T06:38:52;54;48;
73973;PMS5003;62336;-26.094;27.994;2023-05-14T06:41:18;45;40;
73973;PMS5003;62336;-26.094;27.994;2023-05-14T06:43:43;52;50;
73973;PMS5003;62336;-26.094;27.994;2023-05-14T06:46:09;48;48;
73973;PMS5003;62336;-26.094;27.994;2023-05-14T06:48:34;46;45;
73973;PMS5003;62336;-26.094;27.994;2023-05-14T06:50:59;45;44;
73973;PMS5003;62336;-26.094;27.994;2023-05-14T06:53:24;44;38;
73973;PMS5003;62336;-26.094;27.994;2023-05-14T06:55:50;43;40;
73973;PMS5003;62336;-26.094;27.994;2023-05-14T06:58:15;44;42;
73973;PMS5003;62336;-26.094;27.994;2023-05-14T07:00:40;43;41;
73973;PMS5003;62336;-26.094;27.994;2023-05-14T07:03:06;45;41;
73973;PMS5003;62336;-26.094;27.994;2023-05-14T07:05:31;48;47;
73973;PMS5003;62336;-26.094;27.994;2023-05-14T07:07:56;51;51;
73973;PMS5003;62336;-26.094;27.994;2023-05-14T07:10:22;60;54;
73973;PMS5003;62336;-26.094;27.994;2023-05-14T07:12:47;65;62;
73973;PMS5003;62336;-26.094;27.994;2023-05-14T07:15:12;60;56;
73973;PMS5003;62336;-26.094;27.994;2023-05-14T07:17:38;68;62;
73973;PMS5003;62336;-26.094;27.994;2023-05-14T07:20:04;57;56;
73973;PMS5003;62336;-26.094;27.994;2023-05-14T07:22:29;56;52;
73973;PMS5003;62336;-26.094;27.994;2023-05-14T07:24:54;52;51;
73973;PMS5003;62336;-26.094;27.994;2023-05-14T07:27:20;45;44;
73973;PMS5003;62336;-26.094;27.994;2023-05-14T07:29:46;47;46;
73973;PMS5003;62336;-26.094;27.994;2023-05-14T07:32:12;50;45;
73973;PMS5003;62336;-26.094;27.994;2023-05-14T07:34:37;48;46;
73973;PMS5003;62336;-26.094;27.994;2023-05-14T07:37:03;40;37;
73973;PMS5003;62336;-26.094;27.994;2023-05-14T07:39:28;47;42;
73973;PMS5003;62336;-26.094;27.994;2023-05-14T07:41:54;46;45;
73973;PMS5003;62336;-26.094;27.994;2023-05-14T07:44:19;46;44;
73973;PMS5003;62336;-26.094;27.994;2023-05-14T07:46:45;51;49;
73973;PMS5003;62336;-26.094;27.994;2023-05-14T07:49:10;54;50;
73973;PMS5003;62336;-26.094;27.994;2023-05-14T07:51:36;50;48;
73973;PMS5003;62336;-26.094;27.994;2023-05-14T07:54:01;53;49;
73973;PMS5003;62336;-26.094;27.994;2023-05-14T07:56:27;52;51;
73973;PMS5003;62336;-26.094;27.994;2023-05-14T07:58:52;56;52;
73973;PMS5003;62336;-26.094;27.994;2023-05-14T08:01:18;59;55;
73973;PMS5003;62336;-26.094;27.994;2023-05-14T08:03:44;50;48;
73973;PMS5003;62336;-26.094;27.994;2023-05-14T08:06:09;57;54;
73973;PMS5003;62336;-26.094;27.994;2023-05-14T08:08:34;49;47;
73973;PMS5003;62336;-26.094;27.994;2023-05-14T08:11:00;53;51;
73973;PMS5003;62336;-26.094;27.994;2023-05-14T08:13:26;52;51;
73973;PMS5003;62336;-26.094;27.994;2023-05-14T08:15:51;56;53;
73973;PMS5003;62336;-26.094;27.994;2023-05-14T08:18:17;55;54;
73973;PMS5003;62336;-26.094;27.994;2023-05-14T08:20:43;52;50;
73973;PMS5003;62336;-26.094;27.994;2023-05-14T08:23:09;55;53;
73973;PMS5003;62336;-26.094;27.994;2023-05-14T08:25:34;55;50;
73973;PMS5003;62336;-26.094;27.994;2023-05-14T08:28:00;50;47;
73973;PMS5003;62336;-26.094;27.994;2023-05-14T08:30:25;50;49;
73973;PMS5003;62336;-26.094;27.994;2023-05-14T08:32:50;56;54;
73973;PMS5003;62336;-26.094;27.994;2023-05-14T08:35:24;51;48;
73973;PMS5003;62336;-26.094;27.994;2023-05-14T08:37:41;57;53;
73973;PMS5003;62336;-26.094;27.994;2023-05-14T08:40:07;50;48;
73973;PMS5003;62336;-26.094;27.994;2023-05-14T08:42:32;51;48;
73973;PMS5003;62336;-26.094;27.994;2023-05-14T08:44:59;44;44;
73973;PMS5003;62336;-26.094;27.994;2023-05-14T08:47:23;55;51;
73973;PMS5003;62336;-26.094;27.994;2023-05-14T08:49:51;53;52;
73973;PMS5003;62336;-26.094;27.994;2023-05-14T08:52:14;51;49;
73973;PMS5003;62336;-26.094;27.994;2023-05-14T08:54:39;55;48;
73973;PMS5003;62336;-26.094;27.994;2023-05-14T08:57:05;50;47;
73973;PMS5003;62336;-26.094;27.994;2023-05-14T08:59:30;51;48;
73973;PMS5003;62336;-26.094;27.994;2023-05-14T09:01:56;44;42;
73973;PMS5003;62336;-26.094;27.994;2023-05-14T09:04:22;47;44;
73973;PMS5003;62336;-26.094;27.994;2023-05-14T09:06:47;50;48;
73973;PMS5003;62336;-26.094;27.994;2023-05-14T09:09:11;49;45;
73973;PMS5003;62336;-26.094;27.994;2023-05-14T09:11:39;47;45;
73973;PMS5003;62336;-26.094;27.994;2023-05-14T09:14:02;42;40;
73973;PMS5003;62336;-26.094;27.994;2023-05-14T09:16:28;44;43;
73973;PMS5003;62336;-26.094;27.994;2023-05-14T09:18:53;46;45;
73973;PMS5003;62336;-26.094;27.994;2023-05-14T09:21:18;43;39;
73973;PMS5003;62336;-26.094;27.994;2023-05-14T09:23:44;40;38;
73973;PMS5003;62336;-26.094;27.994;2023-05-14T09:26:10;43;42;
73973;PMS5003;62336;-26.094;27.994;2023-05-14T09:28:35;40;39;
73973;PMS5003;62336;-26.094;27.994;2023-05-14T09:31:00;43;41;
73973;PMS5003;62336;-26.094;27.994;2023-05-14T09:33:25;40;39;
73973;PMS5003;62336;-26.094;27.994;2023-05-14T09:35:51;43;41;
73973;PMS5003;62336;-26.094;27.994;2023-05-14T09:38:16;39;37;
73973;PMS5003;62336;-26.094;27.994;2023-05-14T09:40:42;36;34;
73973;PMS5003;62336;-26.094;27.994;2023-05-14T09:43:08;38;36;
73973;PMS5003;62336;-26.094;27.994;2023-05-14T09:45:34;38;37;
73973;PMS5003;62336;-26.094;27.994;2023-05-14T09:47:59;41;40;
73973;PMS5003;62336;-26.094;27.994;2023-05-14T09:50:24;36;35;
73973;PMS5003;62336;-26.094;27.994;2023-05-14T09:52:49;38;37;
73973;PMS5003;62336;-26.094;27.994;2023-05-14T09:55:14;37;37;
73973;PMS5003;62336;-26.094;27.994;2023-05-14T09:57:40;34;33;
73973;PMS5003;62336;-26.094;27.994;2023-05-14T10:00:06;41;40;
73973;PMS5003;62336;-26.094;27.994;2023-05-14T10:02:34;35;34;
73973;PMS5003;62336;-26.094;27.994;2023-05-14T10:04:56;39;37;
73973;PMS5003;62336;-26.094;27.994;2023-05-14T10:07:22;37;36;
73973;PMS5003;62336;-26.094;27.994;2023-05-14T10:09:47;41;40;
73973;PMS5003;62336;-26.094;27.994;2023-05-14T10:12:12;32;32;
73973;PMS5003;62336;-26.094;27.994;2023-05-14T10:14:39;39;37;
73973;PMS5003;62336;-26.094;27.994;2023-05-14T10:17:03;37;37;
73973;PMS5003;62336;-26.094;27.994;2023-05-14T10:19:29;37;35;
73973;PMS5003;62336;-26.094;27.994;2023-05-14T10:21:55;39;37;
73973;PMS5003;62336;-26.094;27.994;2023-05-14T10:24:20;38;36;
73973;PMS5003;62336;-26.094;27.994;2023-05-14T10:26:45;39;36;
73973;PMS5003;62336;-26.094;27.994;2023-05-14T10:29:11;38;34;
73973;PMS5003;62336;-26.094;27.994;2023-05-14T10:31:45;35;34;
73973;PMS5003;62336;-26.094;27.994;2023-05-14T10:34:01;36;34;
73973;PMS5003;62336;-26.094;27.994;2023-05-14T10:36:27;41;38;
73973;PMS5003;62336;-26.094;27.994;2023-05-14T10:38:54;39;37;
73973;PMS5003;62336;-26.094;27.994;2023-05-14T10:41:18;38;37;
73973;PMS5003;62336;-26.094;27.994;2023-05-14T10:43:43;38;36;
73973;PMS5003;62336;-26.094;27.994;2023-05-14T10:46:09;42;38;
73973;PMS5003;62336;-26.094;27.994;2023-05-14T10:48:35;42;41;
73973;PMS5003;62336;-26.094;27.994;2023-05-14T10:51:00;39;39;
73973;PMS5003;62336;-26.094;27.994;2023-05-14T10:53:31;38;36;
73973;PMS5003;62336;-26.094;27.994;2023-05-14T10:55:51;38;37;
73973;PMS5003;62336;-26.094;27.994;2023-05-14T10:58:16;38;37;
73973;PMS5003;62336;-26.094;27.994;2023-05-14T11:00:41;33;31;
73973;PMS5003;62336;-26.094;27.994;2023-05-14T11:03:07;34;33;
73973;PMS5003;62336;-26.094;27.994;2023-05-14T11:05:33;38;37;
73973;PMS5003;62336;-26.094;27.994;2023-05-14T11:07:58;37;35;
73973;PMS5003;62336;-26.094;27.994;2023-05-14T11:10:23;39;37;
73973;PMS5003;62336;-26.094;27.994;2023-05-14T11:12:48;38;38;
73973;PMS5003;62336;-26.094;27.994;2023-05-14T11:15:14;36;34;
73973;PMS5003;62336;-26.094;27.994;2023-05-14T11:17:39;38;37;
73973;PMS5003;62336;-26.094;27.994;2023-05-14T11:20:05;39;37;
73973;PMS5003;62336;-26.094;27.994;2023-05-14T11:22:30;36;35;
73973;PMS5003;62336;-26.094;27.994;2023-05-14T11:24:56;35;32;
73973;PMS5003;62336;-26.094;27.994;2023-05-14T11:27:21;37;34;
73973;PMS5003;62336;-26.094;27.994;2023-05-14T11:29:46;33;32;
73973;PMS5003;62336;-26.094;27.994;2023-05-14T11:32:11;31;30;
73973;PMS5003;62336;-26.094;27.994;2023-05-14T11:34:37;36;34;
73973;PMS5003;62336;-26.094;27.994;2023-05-14T11:37:03;39;37;
73973;PMS5003;62336;-26.094;27.994;2023-05-14T11:39:27;35;34;
73973;PMS5003;62336;-26.094;27.994;2023-05-14T11:41:53;39;37;
73973;PMS5003;62336;-26.094;27.994;2023-05-14T11:44:18;37;37;
73973;PMS5003;62336;-26.094;27.994;2023-05-14T11:49:10;38;37;
73973;PMS5003;62336;-26.094;27.994;2023-05-14T11:51:35;39;37;
73973;PMS5003;62336;-26.094;27.994;2023-05-14T11:54:01;41;38;
73973;PMS5003;62336;-26.094;27.994;2023-05-14T11:56:26;34;34;
73973;PMS5003;62336;-26.094;27.994;2023-05-14T11:58:54;39;39;
73973;PMS5003;62336;-26.094;27.994;2023-05-14T12:01:16;37;37;
73973;PMS5003;62336;-26.094;27.994;2023-05-14T12:03:42;36;36;
73973;PMS5003;62336;-26.094;27.994;2023-05-14T12:06:07;34;32;
73973;PMS5003;62336;-26.094;27.994;2023-05-14T12:08:33;44;42;
73973;PMS5003;62336;-26.094;27.994;2023-05-14T12:10:59;39;36;
73973;PMS5003;62336;-26.094;27.994;2023-05-14T12:13:25;35;35;
73973;PMS5003;62336;-26.094;27.994;2023-05-14T12:15:53;39;37;
73973;PMS5003;62336;-26.094;27.994;2023-05-14T12:18:15;36;33;
73973;PMS5003;62336;-26.094;27.994;2023-05-14T12:23:05;38;38;
73973;PMS5003;62336;-26.094;27.994;2023-05-14T12:25:30;35;35;
73973;PMS5003;62336;-26.094;27.994;2023-05-14T12:27:56;38;37;
73973;PMS5003;62336;-26.094;27.994;2023-05-14T12:30:21;42;42;
73973;PMS5003;62336;-26.094;27.994;2023-05-14T12:32:47;38;36;
73973;PMS5003;62336;-26.094;27.994;2023-05-14T12:35:12;38;38;
73973;PMS5003;62336;-26.094;27.994;2023-05-14T12:37:38;37;35;
73973;PMS5003;62336;-26.094;27.994;2023-05-14T12:40:04;43;37;
73973;PMS5003;62336;-26.094;27.994;2023-05-14T12:42:29;35;33;
73973;PMS5003;62336;-26.094;27.994;2023-05-14T12:44:55;37;35;
73973;PMS5003;62336;-26.094;27.994;2023-05-14T12:47:20;39;38;
73973;PMS5003;62336;-26.094;27.994;2023-05-14T12:49:45;46;44;
73973;PMS5003;62336;-26.094;27.994;2023-05-14T12:52:11;40;38;
73973;PMS5003;62336;-26.094;27.994;2023-05-14T12:54:36;40;39;
73973;PMS5003;62336;-26.094;27.994;2023-05-14T12:57:03;38;36;
73973;PMS5003;62336;-26.094;27.994;2023-05-14T12:59:27;43;40;
73973;PMS5003;62336;-26.094;27.994;2023-05-14T13:01:52;40;40;
73973;PMS5003;62336;-26.094;27.994;2023-05-14T13:04:17;35;34;
73973;PMS5003;62336;-26.094;27.994;2023-05-14T13:06:43;41;39;
73973;PMS5003;62336;-26.094;27.994;2023-05-14T13:09:08;41;39;
73973;PMS5003;62336;-26.094;27.994;2023-05-14T13:11:34;43;41;
73973;PMS5003;62336;-26.094;27.994;2023-05-14T13:14:00;38;37;
73973;PMS5003;62336;-26.094;27.994;2023-05-14T13:16:25;42;40;
73973;PMS5003;62336;-26.094;27.994;2023-05-14T13:18:50;38;38;
73973;PMS5003;62336;-26.094;27.994;2023-05-14T13:21:16;37;37;
73973;PMS5003;62336;-26.094;27.994;2023-05-14T13:23:41;39;38;
73973;PMS5003;62336;-26.094;27.994;2023-05-14T13:26:06;37;35;
73973;PMS5003;62336;-26.094;27.994;2023-05-14T13:28:31;41;40;
73973;PMS5003;62336;-26.094;27.994;2023-05-14T13:31:03;37;34;
73973;PMS5003;62336;-26.094;27.994;2023-05-14T13:33:22;53;49;
73973;PMS5003;62336;-26.094;27.994;2023-05-14T13:35:47;44;38;
73973;PMS5003;62336;-26.094;27.994;2023-05-14T13:38:12;43;42;
73973;PMS5003;62336;-26.094;27.994;2023-05-14T13:40:38;35;34;
73973;PMS5003;62336;-26.094;27.994;2023-05-14T13:43:03;39;38;
73973;PMS5003;62336;-26.094;27.994;2023-05-14T13:45:29;39;39;
73973;PMS5003;62336;-26.094;27.994;2023-05-14T13:47:54;39;39;
73973;PMS5003;62336;-26.094;27.994;2023-05-14T13:50:20;40;36;
73973;PMS5003;62336;-26.094;27.994;2023-05-14T13:52:46;38;36;
73973;PMS5003;62336;-26.094;27.994;2023-05-14T13:55:11;42;39;
73973;PMS5003;62336;-26.094;27.994;2023-05-14T13:57:38;41;36;
73973;PMS5003;62336;-26.094;27.994;2023-05-14T14:00:02;33;33;
73973;PMS5003;62336;-26.094;27.994;2023-05-14T14:02:27;41;39;
73973;PMS5003;62336;-26.094;27.994;2023-05-14T14:04:52;43;41;
73973;PMS5003;62336;-26.094;27.994;2023-05-14T14:07:17;42;41;
73973;PMS5003;62336;-26.094;27.994;2023-05-14T14:09:42;38;38;
73973;PMS5003;62336;-26.094;27.994;2023-05-14T14:12:08;41;39;
73973;PMS5003;62336;-26.094;27.994;2023-05-14T14:14:34;37;35;
73973;PMS5003;62336;-26.094;27.994;2023-05-14T14:16:59;40;38;
73973;PMS5003;62336;-26.094;27.994;2023-05-14T14:19:25;40;37;
73973;PMS5003;62336;-26.094;27.994;2023-05-14T14:21:50;44;41;
73973;PMS5003;62336;-26.094;27.994;2023-05-14T14:24:16;42;41;
73973;PMS5003;62336;-26.094;27.994;2023-05-14T14:26:41;40;38;
73973;PMS5003;62336;-26.094;27.994;2023-05-14T14:29:07;40;37;
73973;PMS5003;62336;-26.094;27.994;2023-05-14T14:31:32;41;39;
73973;PMS5003;62336;-26.094;27.994;2023-05-14T14:33:57;43;38;
73973;PMS5003;62336;-26.094;27.994;2023-05-14T14:36:23;35;34;
73973;PMS5003;62336;-26.094;27.994;2023-05-14T14:38:48;38;36;
73973;PMS5003;62336;-26.094;27.994;2023-05-14T14:41:13;38;36;
73973;PMS5003;62336;-26.094;27.994;2023-05-14T14:43:38;38;38;
73973;PMS5003;62336;-26.094;27.994;2023-05-14T14:46:03;40;36;
73973;PMS5003;62336;-26.094;27.994;2023-05-14T14:48:30;42;41;
73973;PMS5003;62336;-26.094;27.994;2023-05-14T14:50:54;44;40;
73973;PMS5003;62336;-26.094;27.994;2023-05-14T14:53:20;41;37;
73973;PMS5003;62336;-26.094;27.994;2023-05-14T14:55:46;41;39;
73973;PMS5003;62336;-26.094;27.994;2023-05-14T14:58:17;38;37;
73973;PMS5003;62336;-26.094;27.994;2023-05-14T15:00:36;43;42;
73973;PMS5003;62336;-26.094;27.994;2023-05-14T15:03:02;45;41;
73973;PMS5003;62336;-26.094;27.994;2023-05-14T15:05:27;37;36;
73973;PMS5003;62336;-26.094;27.994;2023-05-14T15:07:52;43;41;
73973;PMS5003;62336;-26.094;27.994;2023-05-14T15:10:17;40;39;
73973;PMS5003;62336;-26.094;27.994;2023-05-14T15:12:43;44;42;
73973;PMS5003;62336;-26.094;27.994;2023-05-14T15:15:08;42;42;
73973;PMS5003;62336;-26.094;27.994;2023-05-14T15:17:33;43;41;
73973;PMS5003;62336;-26.094;27.994;2023-05-14T15:19:59;48;44;
73973;PMS5003;62336;-26.094;27.994;2023-05-14T15:22:24;43;40;
73973;PMS5003;62336;-26.094;27.994;2023-05-14T16:42:32;69;63;
73973;PMS5003;62336;-26.094;27.994;2023-05-14T16:44:52;62;56;
73973;PMS5003;62336;-26.094;27.994;2023-05-14T16:47:19;62;57;
73973;PMS5003;62336;-26.094;27.994;2023-05-14T16:49:51;57;56;
73973;PMS5003;62336;-26.094;27.994;2023-05-14T16:52:08;51;50;
73973;PMS5003;62336;-26.094;27.994;2023-05-14T16:54:34;52;50;
73973;PMS5003;62336;-26.094;27.994;2023-05-14T16:57:00;47;44;
73973;PMS5003;62336;-26.094;27.994;2023-05-14T16:59:25;50;47;
73973;PMS5003;62336;-26.094;27.994;2023-05-14T17:01:50;54;49;
73973;PMS5003;62336;-26.094;27.994;2023-05-14T17:04:15;53;50;
73973;PMS5003;62336;-26.094;27.994;2023-05-14T17:06:40;54;51;
73973;PMS5003;62336;-26.094;27.994;2023-05-14T17:09:05;49;46;
73973;PMS5003;62336;-26.094;27.994;2023-05-14T17:11:31;52;48;
73973;PMS5003;62336;-26.094;27.994;2023-05-14T17:13:57;53;50;
73973;PMS5003;62336;-26.094;27.994;2023-05-14T17:16:22;55;49;
73973;PMS5003;62336;-26.094;27.994;2023-05-14T17:18:47;48;47;
73973;PMS5003;62336;-26.094;27.994;2023-05-14T17:21:12;55;53;
73973;PMS5003;62336;-26.094;27.994;2023-05-14T17:23:37;55;52;